createdAt,value
2018-12-12T00:01:38.126Z,3.17
2018-12-12T00:04:07.877Z,2.80
2018-12-12T00:06:37.542Z,3.17
2018-12-12T00:09:07.618Z,3.70
2018-12-12T00:11:36.968Z,3.27
2018-12-12T00:14:06.317Z,3.03
2018-12-12T00:16:35.898Z,2.70
2018-12-12T00:19:05.339Z,3.33
2018-12-12T00:21:34.595Z,3.23
2018-12-12T00:24:05.810Z,3.27
2018-12-12T00:26:35.142Z,2.87
2018-12-12T00:29:05.832Z,2.87
2018-12-12T00:31:35.252Z,3.60
2018-12-12T00:34:05.032Z,3.00
2018-12-12T00:36:34.232Z,3.00
2018-12-12T00:39:05.654Z,3.00
2018-12-12T00:41:35.176Z,3.30
2018-12-12T00:44:04.614Z,3.40
2018-12-12T00:46:34.424Z,3.13
2018-12-12T00:49:04.290Z,3.73
2018-12-12T00:51:34.256Z,3.27
2018-12-12T00:54:03.826Z,3.23
2018-12-12T00:56:33.465Z,3.30
2018-12-12T00:59:03.490Z,3.33
2018-12-12T01:01:32.987Z,3.40
2018-12-12T01:04:02.388Z,3.27
2018-12-12T01:06:31.755Z,3.37
2018-12-12T01:09:01.499Z,3.43
2018-12-12T01:11:35.990Z,4.03
2018-12-12T01:14:05.799Z,3.43
2018-12-12T01:16:35.298Z,3.47
2018-12-12T01:19:04.782Z,3.50
2018-12-12T01:21:33.857Z,3.50
2018-12-12T01:24:03.562Z,3.70
2018-12-12T01:26:33.106Z,4.20
2018-12-12T01:29:02.563Z,3.30
2018-12-12T01:31:31.685Z,3.80
2018-12-12T01:34:01.786Z,3.90
2018-12-12T01:36:31.189Z,3.90
2018-12-12T01:39:00.403Z,4.13
2018-12-12T01:41:29.691Z,3.87
2018-12-12T01:43:58.884Z,4.03
2018-12-12T01:46:28.309Z,4.20
2018-12-12T01:48:57.619Z,3.67
2018-12-12T01:51:30.511Z,4.07
2018-12-12T01:53:59.890Z,4.50
2018-12-12T01:56:29.252Z,3.70
2018-12-12T01:58:58.409Z,3.90
2018-12-12T02:01:27.989Z,4.93
2018-12-12T02:03:57.143Z,3.93
2018-12-12T02:06:26.695Z,4.27
2018-12-12T02:08:56.015Z,4.67
2018-12-12T02:11:25.652Z,4.37
2018-12-12T02:13:55.093Z,5.03
2018-12-12T02:16:25.276Z,4.33
2018-12-12T02:18:55.387Z,4.13
2018-12-12T02:21:24.665Z,4.23
2018-12-12T02:23:54.313Z,4.80
2018-12-12T02:26:23.870Z,4.27
2018-12-12T02:28:53.479Z,4.50
2018-12-12T02:31:22.524Z,4.73
2018-12-12T02:33:52.410Z,4.77
2018-12-12T02:36:21.853Z,4.63
2018-12-12T02:38:51.282Z,4.87
2018-12-12T02:41:21.257Z,4.50
2018-12-12T02:43:51.815Z,4.67
2018-12-12T02:46:21.346Z,4.80
2018-12-12T02:48:50.667Z,4.73
2018-12-12T02:51:19.868Z,5.30
2018-12-12T02:53:48.983Z,4.83
2018-12-12T02:56:18.675Z,5.20
2018-12-12T02:58:48.535Z,5.00
2018-12-12T03:01:17.887Z,6.00
2018-12-12T03:03:47.481Z,4.90
2018-12-12T03:06:16.770Z,4.43
2018-12-12T03:08:45.957Z,5.03
2018-12-12T03:11:19.222Z,5.80
2018-12-12T03:13:48.987Z,5.87
2018-12-12T03:16:18.599Z,5.33
2018-12-12T03:18:48.290Z,5.70
2018-12-12T03:21:17.963Z,5.47
2018-12-12T03:23:47.587Z,5.87
2018-12-12T03:26:17.710Z,5.53
2018-12-12T03:28:47.115Z,5.63
2018-12-12T03:31:16.453Z,5.47
2018-12-12T03:33:46.052Z,5.77
2018-12-12T03:36:15.099Z,5.87
2018-12-12T03:38:44.921Z,5.63
2018-12-12T03:41:14.118Z,5.00
2018-12-12T03:43:43.623Z,5.73
2018-12-12T03:46:13.106Z,5.77
2018-12-12T03:48:42.461Z,5.60
2018-12-12T03:51:12.377Z,5.57
2018-12-12T03:53:41.603Z,5.97
2018-12-12T03:56:10.673Z,5.60
2018-12-12T03:58:40.322Z,5.20
2018-12-12T04:01:10.145Z,4.97
2018-12-12T04:03:39.799Z,5.13
2018-12-12T04:06:09.076Z,5.30
2018-12-12T04:08:38.973Z,4.70
2018-12-12T04:11:08.346Z,5.10
2018-12-12T04:13:37.611Z,5.77
2018-12-12T04:16:06.877Z,5.20
2018-12-12T04:18:35.922Z,4.60
2018-12-12T04:21:05.195Z,5.07
2018-12-12T04:23:34.808Z,5.10
2018-12-12T04:26:04.910Z,4.93
2018-12-12T04:28:34.482Z,5.43
2018-12-12T04:31:04.210Z,5.90
2018-12-12T04:33:33.289Z,4.67
2018-12-12T04:36:02.459Z,5.53
2018-12-12T04:38:32.151Z,4.93
2018-12-12T04:41:01.408Z,5.80
2018-12-12T04:43:31.379Z,4.97
2018-12-12T04:46:00.979Z,5.60
2018-12-12T04:48:30.069Z,5.17
2018-12-12T04:50:59.293Z,4.43
2018-12-12T04:53:28.428Z,5.67
2018-12-12T04:55:58.029Z,5.33
2018-12-12T04:58:27.515Z,5.33
2018-12-12T05:00:56.873Z,5.47
2018-12-12T05:03:26.013Z,5.53
2018-12-12T05:05:55.523Z,5.63
2018-12-12T05:08:25.783Z,5.50
2018-12-12T05:10:55.142Z,5.47
2018-12-12T05:13:24.247Z,4.73
2018-12-12T05:15:53.735Z,5.40
2018-12-12T05:18:23.110Z,5.90
2018-12-12T05:20:52.361Z,6.20
2018-12-12T05:23:21.492Z,6.20
2018-12-12T05:25:50.617Z,5.80
2018-12-12T05:28:20.015Z,5.90
2018-12-12T05:30:49.672Z,6.60
2018-12-12T05:33:18.818Z,5.43
2018-12-12T05:35:48.169Z,5.60
2018-12-12T05:38:17.481Z,5.77
2018-12-12T05:40:47.282Z,6.07
2018-12-12T05:43:16.403Z,6.23
2018-12-12T05:45:45.942Z,6.30
2018-12-12T05:48:15.195Z,6.17
2018-12-12T05:50:45.336Z,5.90
2018-12-12T05:53:15.097Z,5.27
2018-12-12T05:55:46.547Z,5.17
2018-12-12T05:58:15.873Z,6.30
2018-12-12T06:00:45.375Z,5.13
2018-12-12T06:03:14.787Z,5.53
2018-12-12T06:05:45.341Z,5.03
2018-12-12T06:08:14.827Z,5.87
2018-12-12T06:10:44.747Z,5.53
2018-12-12T06:13:14.923Z,5.50
2018-12-12T06:15:44.141Z,5.60
2018-12-12T06:18:13.400Z,5.63
2018-12-12T06:20:42.723Z,6.07
2018-12-12T06:23:11.774Z,5.87
2018-12-12T06:25:40.856Z,5.10
2018-12-12T06:28:09.902Z,5.17
2018-12-12T06:30:39.905Z,5.60
2018-12-12T06:33:09.117Z,5.37
2018-12-12T06:35:38.571Z,6.23
2018-12-12T06:38:08.021Z,5.33
2018-12-12T06:40:37.295Z,6.10
2018-12-12T06:43:07.072Z,6.10
2018-12-12T06:45:36.287Z,6.40
2018-12-12T06:48:05.802Z,6.00
2018-12-12T06:50:35.026Z,5.13
2018-12-12T06:53:04.259Z,5.70
2018-12-12T06:55:33.337Z,5.77
2018-12-12T06:58:02.538Z,5.83
2018-12-12T07:00:31.705Z,4.93
2018-12-12T07:03:00.711Z,6.03
2018-12-12T07:05:30.009Z,6.27
2018-12-12T07:07:59.001Z,5.60
2018-12-12T07:10:28.114Z,5.70
2018-12-12T07:13:03.938Z,5.53
2018-12-12T07:15:33.065Z,5.40
2018-12-12T07:18:02.655Z,5.73
2018-12-12T07:20:32.273Z,5.83
2018-12-12T07:23:01.734Z,5.53
2018-12-12T07:25:31.810Z,6.00
2018-12-12T07:28:01.390Z,5.90
2018-12-12T07:30:30.931Z,5.37
2018-12-12T07:33:01.454Z,6.07
2018-12-12T07:35:31.605Z,5.87
2018-12-12T07:38:01.524Z,5.40
2018-12-12T07:40:33.264Z,5.43
2018-12-12T07:43:03.125Z,5.20
2018-12-12T07:45:33.093Z,5.57
2018-12-12T07:48:02.979Z,5.80
2018-12-12T07:50:32.750Z,5.93
2018-12-12T07:53:02.246Z,5.87
2018-12-12T07:55:32.608Z,6.07
2018-12-12T07:58:02.208Z,6.60
2018-12-12T08:00:32.245Z,6.67
2018-12-12T08:03:06.358Z,6.23
2018-12-12T08:05:34.737Z,5.93
2018-12-12T08:08:04.323Z,5.90
2018-12-12T08:10:35.152Z,5.60
2018-12-12T08:13:05.684Z,6.10
2018-12-12T08:15:35.802Z,5.90
2018-12-12T08:18:05.280Z,6.37
2018-12-12T08:20:35.089Z,6.03
2018-12-12T08:23:04.616Z,6.27
2018-12-12T08:25:34.396Z,6.10
2018-12-12T08:28:04.138Z,6.67
2018-12-12T08:30:33.856Z,6.40
2018-12-12T08:33:03.710Z,5.77
2018-12-12T08:35:33.156Z,6.43
2018-12-12T08:38:02.468Z,6.90
2018-12-12T08:40:31.948Z,6.13
2018-12-12T08:43:02.571Z,5.17
2018-12-12T08:45:32.224Z,5.83
2018-12-12T08:48:02.116Z,5.57
2018-12-12T08:50:31.860Z,5.40
2018-12-12T08:53:01.448Z,5.47
2018-12-12T08:55:31.298Z,5.83
2018-12-12T08:58:01.163Z,5.43
2018-12-12T09:00:30.566Z,5.33
2018-12-12T09:03:00.612Z,5.53
2018-12-12T09:05:30.282Z,7.50
2018-12-12T09:07:59.792Z,9.07
2018-12-12T09:10:29.300Z,6.30
2018-12-12T09:12:59.331Z,5.00
2018-12-12T09:15:29.372Z,5.03
2018-12-12T09:17:59.905Z,5.83
2018-12-12T09:20:29.310Z,5.90
2018-12-12T09:22:59.180Z,5.33
2018-12-12T09:25:28.861Z,5.47
2018-12-12T09:27:58.999Z,4.70
2018-12-12T09:30:28.562Z,4.90
2018-12-12T09:32:57.819Z,5.73
2018-12-12T09:35:27.307Z,5.63
2018-12-12T09:37:56.911Z,5.17
2018-12-12T09:40:26.594Z,5.43
2018-12-12T09:42:56.230Z,5.23
2018-12-12T09:45:25.771Z,5.70
2018-12-12T09:47:54.980Z,4.97
2018-12-12T09:50:24.371Z,5.77
2018-12-12T09:52:54.326Z,4.77
2018-12-12T09:55:24.002Z,4.27
2018-12-12T09:57:53.634Z,4.67
2018-12-12T10:00:23.250Z,5.17
2018-12-12T10:02:53.023Z,4.93
2018-12-12T10:05:22.333Z,4.70
2018-12-12T10:07:51.864Z,5.07
2018-12-12T10:10:22.013Z,3.90
2018-12-12T10:12:51.648Z,4.43
2018-12-12T10:15:21.318Z,4.90
2018-12-12T10:17:51.096Z,4.47
2018-12-12T10:20:20.640Z,4.43
2018-12-12T10:22:50.108Z,4.43
2018-12-12T10:25:19.476Z,4.50
2018-12-12T10:27:49.432Z,5.47
2018-12-12T10:30:19.090Z,4.73
2018-12-12T10:32:48.746Z,4.83
2018-12-12T10:35:19.103Z,4.87
2018-12-12T10:37:49.390Z,4.57
2018-12-12T10:40:19.404Z,4.87
2018-12-12T10:42:49.174Z,4.60
2018-12-12T10:45:19.546Z,4.47
2018-12-12T10:47:49.486Z,4.13
2018-12-12T10:50:19.415Z,4.67
2018-12-12T10:52:49.971Z,4.17
2018-12-12T10:55:21.210Z,4.67
2018-12-12T10:57:50.810Z,4.77
2018-12-12T11:00:20.211Z,4.43
2018-12-12T11:02:53.710Z,4.20
2018-12-12T11:05:23.727Z,4.37
2018-12-12T11:07:53.308Z,3.77
2018-12-12T11:10:23.157Z,3.80
2018-12-12T11:12:52.663Z,3.80
2018-12-12T11:15:23.276Z,3.53
2018-12-12T11:17:53.450Z,4.70
2018-12-12T11:20:23.448Z,4.00
2018-12-12T11:22:52.931Z,4.00
2018-12-12T11:25:22.326Z,3.87
2018-12-12T11:27:52.066Z,3.63
2018-12-12T11:30:21.745Z,3.70
2018-12-12T11:32:51.416Z,4.00
2018-12-12T11:35:21.273Z,3.50
2018-12-12T11:37:51.131Z,4.00
2018-12-12T11:40:20.460Z,3.30
2018-12-12T11:42:51.004Z,3.60
2018-12-12T11:45:20.626Z,3.50
2018-12-12T11:47:50.465Z,4.00
2018-12-12T11:50:19.766Z,4.60
2018-12-12T11:52:49.428Z,4.17
2018-12-12T11:55:19.046Z,4.20
2018-12-12T11:57:49.044Z,4.33
2018-12-12T12:00:20.192Z,3.67
2018-12-12T12:02:56.400Z,4.10
2018-12-12T12:05:26.041Z,3.63
2018-12-12T12:07:55.769Z,3.63
2018-12-12T12:10:28.746Z,4.07
2018-12-12T12:12:58.373Z,3.43
2018-12-12T12:15:28.130Z,3.80
2018-12-12T12:17:57.541Z,4.27
2018-12-12T12:20:27.720Z,3.57
2018-12-12T12:22:57.024Z,3.70
2018-12-12T12:25:26.555Z,4.07
2018-12-12T12:27:56.228Z,4.13
2018-12-12T12:30:26.295Z,4.07
2018-12-12T12:32:55.879Z,4.00
2018-12-12T12:35:25.259Z,4.43
2018-12-12T12:37:54.577Z,3.93
2018-12-12T12:40:24.289Z,4.30
2018-12-12T12:42:53.890Z,3.90
2018-12-12T12:45:23.823Z,4.27
2018-12-12T12:47:53.658Z,3.77
2018-12-12T12:50:23.129Z,3.53
2018-12-12T12:52:52.626Z,3.90
2018-12-12T12:55:22.588Z,4.20
2018-12-12T12:57:51.719Z,3.97
2018-12-12T13:00:21.697Z,3.73
2018-12-12T13:02:51.351Z,4.27
2018-12-12T13:05:20.819Z,4.17
2018-12-12T13:07:50.829Z,4.27
2018-12-12T13:10:20.671Z,3.50
2018-12-12T13:12:50.837Z,4.20
2018-12-12T13:15:20.330Z,4.50
2018-12-12T13:17:52.161Z,4.33
2018-12-12T13:20:21.699Z,4.73
2018-12-12T13:22:51.348Z,3.60
2018-12-12T13:25:21.181Z,3.87
2018-12-12T13:27:51.560Z,4.03
2018-12-12T13:30:21.022Z,3.77
2018-12-12T13:32:50.718Z,3.93
2018-12-12T13:35:20.358Z,3.97
2018-12-12T13:37:50.864Z,4.47
2018-12-12T13:40:23.249Z,4.30
2018-12-12T13:42:53.000Z,3.77
2018-12-12T13:45:22.326Z,3.97
2018-12-12T13:47:51.762Z,4.67
2018-12-12T13:50:21.689Z,3.63
2018-12-12T13:52:51.822Z,3.87
2018-12-12T13:55:21.356Z,3.70
2018-12-12T13:57:51.114Z,4.33
2018-12-12T14:00:20.478Z,3.90
2018-12-12T14:02:50.722Z,4.17
2018-12-12T14:05:20.410Z,4.07
2018-12-12T14:07:50.350Z,4.23
2018-12-12T14:10:19.634Z,4.23
2018-12-12T14:12:49.275Z,4.73
2018-12-12T14:15:18.790Z,4.47
2018-12-12T14:17:48.351Z,4.20
2018-12-12T14:20:17.858Z,4.07
2018-12-12T14:22:47.522Z,4.10
2018-12-12T14:25:16.931Z,3.80
2018-12-12T14:27:46.630Z,4.30
2018-12-12T14:30:16.098Z,3.60
2018-12-12T14:32:45.890Z,3.60
2018-12-12T14:35:15.407Z,4.03
2018-12-12T14:37:46.321Z,3.33
2018-12-12T14:40:16.712Z,3.10
2018-12-12T14:42:46.803Z,2.80
2018-12-12T14:45:16.710Z,2.43
2018-12-12T14:47:46.451Z,3.07
2018-12-12T14:50:15.907Z,3.07
2018-12-12T14:52:45.274Z,2.47
2018-12-12T14:55:14.620Z,2.87
2018-12-12T14:57:44.382Z,2.40
2018-12-12T15:00:14.118Z,2.53
2018-12-12T15:02:43.402Z,2.60
2018-12-12T15:05:12.858Z,2.70
2018-12-12T15:07:42.428Z,2.40
2018-12-12T15:10:12.351Z,2.77
2018-12-12T15:12:41.566Z,3.30
2018-12-12T15:15:10.624Z,3.00
2018-12-12T15:17:39.795Z,2.60
2018-12-12T15:20:09.235Z,3.40
2018-12-12T15:22:38.501Z,3.53
2018-12-12T15:25:07.679Z,3.40
2018-12-12T15:27:36.975Z,3.17
2018-12-12T15:30:06.521Z,3.70
2018-12-12T15:32:35.775Z,3.93
2018-12-12T15:35:05.077Z,3.40
2018-12-12T15:37:34.205Z,3.80
2018-12-12T15:40:03.428Z,3.70
2018-12-12T15:42:32.567Z,3.73
2018-12-12T15:45:01.672Z,3.87
2018-12-12T15:47:30.806Z,4.13
2018-12-12T15:49:59.974Z,4.53
2018-12-12T15:52:29.358Z,4.20
2018-12-12T15:54:58.815Z,4.53
2018-12-12T15:57:28.096Z,4.40
2018-12-12T15:59:57.431Z,3.97
2018-12-12T16:02:27.223Z,4.43
2018-12-12T16:04:58.566Z,5.03
2018-12-12T16:07:27.845Z,5.03
2018-12-12T16:09:57.522Z,5.00
2018-12-12T16:12:26.637Z,4.80
2018-12-12T16:14:56.446Z,4.90
2018-12-12T16:17:25.933Z,5.07
2018-12-12T16:19:55.123Z,5.07
2018-12-12T16:22:24.179Z,5.20
2018-12-12T16:24:53.783Z,5.50
2018-12-12T16:27:23.163Z,5.40
2018-12-12T16:29:52.887Z,4.80
2018-12-12T16:32:22.011Z,5.30
2018-12-12T16:34:55.628Z,5.30
2018-12-12T16:37:22.704Z,4.67
2018-12-12T16:39:52.517Z,5.80
2018-12-12T16:42:22.095Z,5.17
2018-12-12T16:44:51.181Z,4.70
2018-12-12T16:47:20.773Z,4.97
2018-12-12T16:49:50.414Z,5.57
2018-12-12T16:52:19.854Z,5.37
2018-12-12T16:54:49.172Z,4.60
2018-12-12T16:57:18.374Z,4.47
2018-12-12T16:59:47.751Z,5.77
2018-12-12T17:02:17.187Z,4.60
2018-12-12T17:04:46.432Z,4.50
2018-12-12T17:07:15.614Z,5.53
2018-12-12T17:09:44.623Z,4.50
2018-12-12T17:12:13.897Z,4.73
2018-12-12T17:14:43.125Z,5.17
2018-12-12T17:17:12.633Z,4.67
2018-12-12T17:19:42.193Z,4.37
2018-12-12T17:22:11.608Z,3.97
2018-12-12T17:24:40.951Z,3.53
2018-12-12T17:27:10.908Z,4.03
2018-12-12T17:29:40.384Z,3.80
2018-12-12T17:32:09.559Z,4.30
2018-12-12T17:34:38.895Z,3.47
2018-12-12T17:37:08.775Z,3.50
2018-12-12T17:39:38.662Z,3.67
2018-12-12T17:42:08.085Z,3.77
2018-12-12T17:44:37.234Z,3.63
2018-12-12T17:47:06.299Z,2.97
2018-12-12T17:49:35.493Z,3.87
2018-12-12T17:52:04.837Z,3.57
2018-12-12T17:54:33.918Z,3.80
2018-12-12T17:57:03.379Z,3.27
2018-12-12T17:59:33.088Z,3.87
2018-12-12T18:02:03.641Z,3.57
2018-12-12T18:04:32.728Z,3.37
2018-12-12T18:07:01.809Z,2.87
2018-12-12T18:09:31.826Z,3.37
2018-12-12T18:12:01.000Z,3.37
2018-12-12T18:14:30.671Z,3.03
2018-12-12T18:16:59.999Z,3.50
2018-12-12T18:19:29.664Z,3.50
2018-12-12T18:21:58.710Z,3.07
2018-12-12T18:24:28.130Z,3.43
2018-12-12T18:26:57.840Z,3.00
2018-12-12T18:29:27.284Z,4.03
2018-12-12T18:31:56.710Z,3.07
2018-12-12T18:34:26.405Z,3.80
2018-12-12T18:36:55.650Z,3.10
2018-12-12T18:39:25.383Z,3.13
2018-12-12T18:41:54.678Z,3.13
2018-12-12T18:44:25.084Z,3.30
2018-12-12T18:46:54.335Z,3.53
2018-12-12T18:49:23.825Z,2.70
2018-12-12T18:51:53.188Z,3.40
2018-12-12T18:54:22.567Z,3.50
2018-12-12T18:56:52.177Z,3.70
2018-12-12T18:59:21.637Z,3.33
2018-12-12T19:01:51.667Z,3.40
2018-12-12T19:04:21.532Z,3.40
2018-12-12T19:06:52.752Z,4.00
2018-12-12T19:09:21.871Z,3.27
2018-12-12T19:11:51.978Z,3.63
2018-12-12T19:14:21.443Z,3.33
2018-12-12T19:16:50.648Z,3.73
2018-12-12T19:19:20.054Z,3.80
2018-12-12T19:21:49.231Z,3.53
2018-12-12T19:24:18.359Z,4.10
2018-12-12T19:26:47.753Z,3.73
2018-12-12T19:29:16.829Z,3.57
2018-12-12T19:31:46.145Z,3.70
2018-12-12T19:34:15.401Z,3.53
2018-12-12T19:36:44.728Z,3.70
2018-12-12T19:39:14.242Z,3.43
2018-12-12T19:41:43.949Z,3.80
2018-12-12T19:44:13.336Z,3.43
2018-12-12T19:46:43.014Z,4.30
2018-12-12T19:49:12.552Z,3.70
2018-12-12T19:51:41.762Z,4.33
2018-12-12T19:54:17.544Z,4.13
2018-12-12T19:56:46.664Z,3.87
2018-12-12T19:59:16.021Z,3.87
2018-12-12T20:01:46.102Z,3.40
2018-12-12T20:04:15.578Z,3.87
2018-12-12T20:06:45.015Z,3.83
2018-12-12T20:09:14.305Z,4.30
2018-12-12T20:11:43.617Z,3.93
2018-12-12T20:14:12.959Z,3.70
2018-12-12T20:16:42.394Z,4.17
2018-12-12T20:19:11.609Z,4.57
2018-12-12T20:21:40.718Z,3.77
2018-12-12T20:24:09.974Z,3.90
2018-12-12T20:26:39.306Z,4.87
2018-12-12T20:29:08.535Z,3.67
2018-12-12T20:31:38.352Z,4.10
2018-12-12T20:34:07.865Z,3.90
2018-12-12T20:36:37.139Z,4.37
2018-12-12T20:39:07.815Z,4.53
2018-12-12T20:41:37.058Z,4.80
2018-12-12T20:44:06.205Z,4.63
2018-12-12T20:46:35.641Z,5.97
2018-12-12T20:49:05.789Z,4.90
2018-12-12T20:51:34.976Z,5.27
2018-12-12T20:54:04.317Z,4.40
2018-12-12T20:56:35.061Z,4.73
2018-12-12T20:59:04.273Z,4.47
2018-12-12T21:01:33.661Z,4.20
2018-12-12T21:04:02.941Z,5.60
2018-12-12T21:06:32.077Z,4.07
2018-12-12T21:09:01.243Z,3.70
2018-12-12T21:11:30.590Z,4.30
2018-12-12T21:14:00.125Z,4.00
2018-12-12T21:16:29.610Z,4.60
2018-12-12T21:18:58.814Z,4.20
2018-12-12T21:21:28.184Z,4.93
2018-12-12T21:23:57.730Z,3.67
2018-12-12T21:26:27.865Z,2.80
2018-12-12T21:28:57.852Z,2.57
2018-12-12T21:31:27.913Z,3.00
2018-12-12T21:33:57.113Z,2.37
2018-12-12T21:36:26.858Z,2.13
2018-12-12T21:38:56.715Z,1.93
2018-12-12T21:41:26.202Z,1.80
2018-12-12T21:43:58.190Z,1.30
2018-12-12T21:46:27.883Z,1.97
2018-12-12T21:48:57.243Z,1.90
2018-12-12T21:51:27.748Z,1.80
2018-12-12T21:53:56.898Z,1.80
2018-12-12T21:56:26.476Z,1.80
2018-12-12T21:58:56.271Z,2.23
2018-12-12T22:01:25.990Z,1.83
2018-12-12T22:03:55.779Z,2.50
2018-12-12T22:06:25.424Z,2.77
2018-12-12T22:08:54.894Z,2.17
2018-12-12T22:11:25.192Z,1.97
2018-12-12T22:13:54.998Z,3.07
2018-12-12T22:16:25.245Z,3.47
2018-12-12T22:18:55.087Z,3.67
2018-12-12T22:21:24.402Z,3.17
2018-12-12T22:23:53.495Z,3.43
2018-12-12T22:26:22.722Z,2.90
2018-12-12T22:28:52.457Z,3.37
2018-12-12T22:31:21.830Z,3.37
2018-12-12T22:33:51.320Z,2.83
2018-12-12T22:36:20.633Z,3.30
2018-12-12T22:38:50.352Z,3.50
2018-12-12T22:41:19.358Z,3.80
2018-12-12T22:43:48.826Z,3.77
2018-12-12T22:46:18.313Z,3.20
2018-12-12T22:48:47.560Z,3.60
2018-12-12T22:51:17.216Z,4.40
2018-12-12T22:53:46.340Z,4.17
2018-12-12T22:56:15.618Z,3.87
2018-12-12T22:58:45.178Z,4.47
2018-12-12T23:01:19.910Z,4.63
2018-12-12T23:03:49.262Z,4.07
2018-12-12T23:06:20.479Z,4.13
2018-12-12T23:08:49.714Z,4.40
2018-12-12T23:11:19.250Z,4.23
2018-12-12T23:13:48.754Z,5.07
2018-12-12T23:16:17.948Z,4.87
2018-12-12T23:18:47.109Z,4.60
2018-12-12T23:21:16.393Z,5.83
2018-12-12T23:23:45.499Z,5.87
2018-12-12T23:26:14.697Z,5.13
2018-12-12T23:28:43.841Z,5.03
2018-12-12T23:31:13.115Z,5.90
2018-12-12T23:33:42.379Z,5.90
2018-12-12T23:36:11.738Z,5.47
2018-12-12T23:38:41.338Z,6.00
2018-12-12T23:41:10.385Z,7.03
2018-12-12T23:43:39.678Z,7.20
2018-12-12T23:46:09.302Z,7.40
2018-12-12T23:48:38.665Z,7.40
2018-12-12T23:51:08.020Z,7.60
2018-12-12T23:53:37.298Z,8.30
2018-12-12T23:56:06.513Z,8.33
2018-12-12T23:58:35.813Z,8.33
